sensor_id;sensor_type;location;lat;lon;timestamp;pressure;altitude;pressure_sealevel;temperature;humidity
31775;BME280;66189;49.000;11.640;2023-04-26T00:01:11;95864.94;;;4.59;73.42
31775;BME280;66189;49.000;11.640;2023-04-26T00:03:13;95860.59;;;4.45;73.90
31775;BME280;66189;49.000;11.640;2023-04-26T00:05:14;95856.00;;;4.55;73.78
31775;BME280;66189;49.000;11.640;2023-04-26T00:07:15;95859.31;;;4.52;74.26
31775;BME280;66189;49.000;11.640;2023-04-26T00:09:16;95860.09;;;4.52;73.99
31775;BME280;66189;49.000;11.640;2023-04-26T00:11:18;95856.03;;;4.46;74.21
31775;BME280;66189;49.000;11.640;2023-04-26T00:13:18;95850.56;;;4.51;74.01
31775;BME280;66189;49.000;11.640;2023-04-26T00:15:18;95846.78;;;4.52;74.09
31775;BME280;66189;49.000;11.640;2023-04-26T00:17:19;95839.75;;;4.48;73.93
31775;BME280;66189;49.000;11.640;2023-04-26T00:19:19;95835.53;;;4.47;74.20
31775;BME280;66189;49.000;11.640;2023-04-26T00:21:20;95824.88;;;4.47;74.60
31775;BME280;66189;49.000;11.640;2023-04-26T00:23:20;95837.72;;;4.44;74.25
31775;BME280;66189;49.000;11.640;2023-04-26T00:25:21;95838.50;;;4.45;73.83
31775;BME280;66189;49.000;11.640;2023-04-26T00:27:21;95842.91;;;4.41;73.69
31775;BME280;66189;49.000;11.640;2023-04-26T00:29:21;95840.88;;;4.38;73.25
31775;BME280;66189;49.000;11.640;2023-04-26T00:31:22;95841.53;;;4.35;73.17
31775;BME280;66189;49.000;11.640;2023-04-26T00:33:22;95845.91;;;4.31;73.79
31775;BME280;66189;49.000;11.640;2023-04-26T00:35:23;95846.25;;;4.29;73.10
31775;BME280;66189;49.000;11.640;2023-04-26T00:37:23;95847.50;;;4.23;74.07
31775;BME280;66189;49.000;11.640;2023-04-26T00:39:24;95848.28;;;4.23;73.55
31775;BME280;66189;49.000;11.640;2023-04-26T00:41:24;95844.09;;;4.22;73.56
31775;BME280;66189;49.000;11.640;2023-04-26T00:43:25;95847.84;;;4.21;73.68
31775;BME280;66189;49.000;11.640;2023-04-26T00:45:26;95843.16;;;4.18;73.88
31775;BME280;66189;49.000;11.640;2023-04-26T00:47:26;95845.50;;;4.11;73.40
31775;BME280;66189;49.000;11.640;2023-04-26T00:49:28;95846.16;;;4.08;73.97
31775;BME280;66189;49.000;11.640;2023-04-26T00:51:28;95856.47;;;4.09;74.00
31775;BME280;66189;49.000;11.640;2023-04-26T00:53:29;95863.25;;;4.07;74.56
31775;BME280;66189;49.000;11.640;2023-04-26T00:55:30;95861.22;;;4.04;74.60
31775;BME280;66189;49.000;11.640;2023-04-26T00:57:30;95861.50;;;4.02;75.14
31775;BME280;66189;49.000;11.640;2023-04-26T00:59:30;95863.38;;;4.02;75.11
31775;BME280;66189;49.000;11.640;2023-04-26T01:01:32;95868.56;;;3.98;75.07
31775;BME280;66189;49.000;11.640;2023-04-26T01:03:32;95860.09;;;3.96;74.03
31775;BME280;66189;49.000;11.640;2023-04-26T01:05:34;95867.50;;;3.90;74.06
31775;BME280;66189;49.000;11.640;2023-04-26T01:07:37;95865.47;;;3.79;74.68
31775;BME280;66189;49.000;11.640;2023-04-26T01:09:40;95859.22;;;3.74;74.99
31775;BME280;66189;49.000;11.640;2023-04-26T01:11:41;95860.78;;;3.67;75.23
31775;BME280;66189;49.000;11.640;2023-04-26T01:13:42;95857.97;;;3.63;75.76
31775;BME280;66189;49.000;11.640;2023-04-26T01:15:44;95862.97;;;3.65;75.60
31775;BME280;66189;49.000;11.640;2023-04-26T01:17:45;95857.81;;;3.60;75.93
31775;BME280;66189;49.000;11.640;2023-04-26T01:19:49;95853.28;;;3.60;75.56
31775;BME280;66189;49.000;11.640;2023-04-26T01:21:49;95861.28;;;3.60;76.01
31775;BME280;66189;49.000;11.640;2023-04-26T01:23:50;95859.25;;;3.57;76.24
31775;BME280;66189;49.000;11.640;2023-04-26T01:25:50;95862.53;;;3.54;76.04
31775;BME280;66189;49.000;11.640;2023-04-26T01:27:51;95860.31;;;3.47;76.35
31775;BME280;66189;49.000;11.640;2023-04-26T01:29:51;95855.00;;;3.47;76.13
31775;BME280;66189;49.000;11.640;2023-04-26T01:31:51;95858.28;;;3.44;76.02
31775;BME280;66189;49.000;11.640;2023-04-26T01:33:53;95854.22;;;3.47;75.64
31775;BME280;66189;49.000;11.640;2023-04-26T01:35:53;95858.28;;;3.44;75.71
31775;BME280;66189;49.000;11.640;2023-04-26T01:37:53;95861.44;;;3.37;76.04
31775;BME280;66189;49.000;11.640;2023-04-26T01:39:54;95859.41;;;3.34;75.96
31775;BME280;66189;49.000;11.640;2023-04-26T01:41:56;95861.88;;;3.31;75.84
31775;BME280;66189;49.000;11.640;2023-04-26T01:43:57;95857.38;;;3.31;76.13
31775;BME280;66189;49.000;11.640;2023-04-26T01:45:58;95860.97;;;3.27;76.15
31775;BME280;66189;49.000;11.640;2023-04-26T01:48:02;95860.97;;;3.27;76.22
31775;BME280;66189;49.000;11.640;2023-04-26T01:50:05;95866.59;;;3.25;76.73
31775;BME280;66189;49.000;11.640;2023-04-26T01:52:06;95865.78;;;3.25;76.53
31775;BME280;66189;49.000;11.640;2023-04-26T01:54:06;95874.69;;;3.20;76.66
31775;BME280;66189;49.000;11.640;2023-04-26T01:56:07;95874.84;;;3.15;77.04
31775;BME280;66189;49.000;11.640;2023-04-26T01:58:07;95871.13;;;3.16;77.12
31775;BME280;66189;49.000;11.640;2023-04-26T02:00:08;95880.94;;;3.15;77.50
31775;BME280;66189;49.000;11.640;2023-04-26T02:02:15;95878.59;;;3.14;77.39
31775;BME280;66189;49.000;11.640;2023-04-26T02:04:16;95874.22;;;3.18;76.90
31775;BME280;66189;49.000;11.640;2023-04-26T02:06:16;95881.44;;;3.17;76.46
31775;BME280;66189;49.000;11.640;2023-04-26T02:08:17;95874.22;;;3.18;76.00
31775;BME280;66189;49.000;11.640;2023-04-26T02:10:18;95875.94;;;3.14;76.67
31775;BME280;66189;49.000;11.640;2023-04-26T02:12:18;95883.59;;;3.15;76.06
31775;BME280;66189;49.000;11.640;2023-04-26T02:14:18;95871.44;;;3.14;76.37
31775;BME280;66189;49.000;11.640;2023-04-26T02:16:19;95872.97;;;3.15;76.46
31775;BME280;66189;49.000;11.640;2023-04-26T02:18:20;95873.91;;;3.19;76.48
31775;BME280;66189;49.000;11.640;2023-04-26T02:20:20;95877.66;;;3.18;76.52
31775;BME280;66189;49.000;11.640;2023-04-26T02:22:21;95875.00;;;3.18;76.54
31775;BME280;66189;49.000;11.640;2023-04-26T02:24:24;95877.81;;;3.13;76.31
31775;BME280;66189;49.000;11.640;2023-04-26T02:26:24;95878.44;;;3.10;76.24
31775;BME280;66189;49.000;11.640;2023-04-26T02:28:26;95875.00;;;3.10;75.76
31775;BME280;66189;49.000;11.640;2023-04-26T02:30:28;95879.22;;;3.11;75.13
31775;BME280;66189;49.000;11.640;2023-04-26T02:32:29;95879.69;;;3.04;75.36
31775;BME280;66189;49.000;11.640;2023-04-26T02:34:30;95872.66;;;2.99;75.14
31775;BME280;66189;49.000;11.640;2023-04-26T02:36:31;95879.50;;;3.00;74.88
31775;BME280;66189;49.000;11.640;2023-04-26T02:38:33;95879.81;;;2.90;74.89
31775;BME280;66189;49.000;11.640;2023-04-26T02:40:34;95882.78;;;2.89;74.87
31775;BME280;66189;49.000;11.640;2023-04-26T02:42:35;95879.19;;;2.84;75.08
31775;BME280;66189;49.000;11.640;2023-04-26T02:44:35;95881.53;;;2.86;74.96
31775;BME280;66189;49.000;11.640;2023-04-26T02:46:39;95884.19;;;2.86;75.24
31775;BME280;66189;49.000;11.640;2023-04-26T02:48:40;95878.22;;;2.80;74.60
31775;BME280;66189;49.000;11.640;2023-04-26T02:50:40;95876.38;;;2.81;74.89
31775;BME280;66189;49.000;11.640;2023-04-26T02:52:41;95875.56;;;2.80;74.70
31775;BME280;66189;49.000;11.640;2023-04-26T02:54:41;95882.13;;;2.74;74.63
31775;BME280;66189;49.000;11.640;2023-04-26T02:56:42;95876.03;;;2.74;74.90
31775;BME280;66189;49.000;11.640;2023-04-26T02:58:42;95877.56;;;2.75;74.29
31775;BME280;66189;49.000;11.640;2023-04-26T03:00:46;95879.00;;;2.72;74.11
31775;BME280;66189;49.000;11.640;2023-04-26T03:02:47;95876.47;;;2.67;74.84
31775;BME280;66189;49.000;11.640;2023-04-26T03:04:47;95875.53;;;2.72;74.52
31775;BME280;66189;49.000;11.640;2023-04-26T03:06:47;95882.56;;;2.67;74.53
31775;BME280;66189;49.000;11.640;2023-04-26T03:08:49;95880.03;;;2.62;74.49
31775;BME280;66189;49.000;11.640;2023-04-26T03:10:49;95881.44;;;2.60;74.79
31775;BME280;66189;49.000;11.640;2023-04-26T03:12:49;95887.22;;;2.62;74.47
31775;BME280;66189;49.000;11.640;2023-04-26T03:14:50;95886.56;;;2.56;73.81
31775;BME280;66189;49.000;11.640;2023-04-26T03:16:51;95888.47;;;2.56;74.32
31775;BME280;66189;49.000;11.640;2023-04-26T03:18:52;95880.34;;;2.61;74.09
31775;BME280;66189;49.000;11.640;2023-04-26T03:20:53;95881.06;;;2.44;74.46
31775;BME280;66189;49.000;11.640;2023-04-26T03:22:54;95889.06;;;2.53;74.15
31775;BME280;66189;49.000;11.640;2023-04-26T03:24:54;95890.59;;;2.45;74.37
31775;BME280;66189;49.000;11.640;2023-04-26T03:26:56;95894.34;;;2.44;75.17
31775;BME280;66189;49.000;11.640;2023-04-26T03:28:57;95890.88;;;2.35;75.18
31775;BME280;66189;49.000;11.640;2023-04-26T03:30:58;95887.44;;;2.34;75.20
31775;BME280;66189;49.000;11.640;2023-04-26T03:32:58;95886.31;;;2.35;75.11
31775;BME280;66189;49.000;11.640;2023-04-26T03:34:59;95887.44;;;2.34;74.97
31775;BME280;66189;49.000;11.640;2023-04-26T03:37:00;95889.13;;;2.30;75.12
31775;BME280;66189;49.000;11.640;2023-04-26T03:39:00;95890.34;;;2.24;75.39
31775;BME280;66189;49.000;11.640;2023-04-26T03:41:01;95889.28;;;2.25;75.04
31775;BME280;66189;49.000;11.640;2023-04-26T03:43:01;95894.13;;;2.31;74.55
31775;BME280;66189;49.000;11.640;2023-04-26T03:45:02;95897.41;;;2.28;75.03
31775;BME280;66189;49.000;11.640;2023-04-26T03:47:05;95899.38;;;2.23;74.87
31775;BME280;66189;49.000;11.640;2023-04-26T03:49:06;95902.72;;;2.28;74.67
31775;BME280;66189;49.000;11.640;2023-04-26T03:51:06;95894.09;;;2.23;74.44
31775;BME280;66189;49.000;11.640;2023-04-26T03:53:07;95901.75;;;2.24;75.04
31775;BME280;66189;49.000;11.640;2023-04-26T03:55:07;95893.00;;;2.24;74.40
31775;BME280;66189;49.000;11.640;2023-04-26T03:57:09;95893.66;;;2.29;74.45
31775;BME280;66189;49.000;11.640;2023-04-26T03:59:10;95897.88;;;2.30;74.17
31775;BME280;66189;49.000;11.640;2023-04-26T04:01:11;95898.78;;;2.26;74.73
31775;BME280;66189;49.000;11.640;2023-04-26T04:03:12;95898.00;;;2.25;74.63
31775;BME280;66189;49.000;11.640;2023-04-26T04:05:12;95898.91;;;2.21;74.75
31775;BME280;66189;49.000;11.640;2023-04-26T04:07:12;95895.50;;;2.20;74.43
31775;BME280;66189;49.000;11.640;2023-04-26T04:09:13;95907.34;;;2.23;74.60
31775;BME280;66189;49.000;11.640;2023-04-26T04:11:13;95910.75;;;2.15;75.10
31775;BME280;66189;49.000;11.640;2023-04-26T04:13:14;95911.41;;;2.20;74.62
31775;BME280;66189;49.000;11.640;2023-04-26T04:15:15;95918.72;;;2.15;74.35
31775;BME280;66189;49.000;11.640;2023-04-26T04:17:19;95920.09;;;2.12;74.48
31775;BME280;66189;49.000;11.640;2023-04-26T04:19:19;95916.16;;;2.09;74.68
31775;BME280;66189;49.000;11.640;2023-04-26T04:21:20;95918.53;;;2.11;75.21
31775;BME280;66189;49.000;11.640;2023-04-26T04:23:21;95922.75;;;2.12;74.96
31775;BME280;66189;49.000;11.640;2023-04-26T04:25:22;95924.03;;;2.15;75.09
31775;BME280;66189;49.000;11.640;2023-04-26T04:27:23;95922.28;;;2.10;75.21
31775;BME280;66189;49.000;11.640;2023-04-26T04:29:24;95920.22;;;2.07;75.74
31775;BME280;66189;49.000;11.640;2023-04-26T04:31:25;95919.13;;;2.08;75.71
31775;BME280;66189;49.000;11.640;2023-04-26T04:33:26;95928.38;;;2.10;75.39
31775;BME280;66189;49.000;11.640;2023-04-26T04:35:29;95922.44;;;2.13;75.88
31775;BME280;66189;49.000;11.640;2023-04-26T04:37:32;95931.69;;;2.16;75.57
31775;BME280;66189;49.000;11.640;2023-04-26T04:39:34;95924.81;;;2.15;75.23
31775;BME280;66189;49.000;11.640;2023-04-26T04:41:35;95932.97;;;2.19;75.18
31775;BME280;66189;49.000;11.640;2023-04-26T04:43:36;95931.06;;;2.19;75.30
31775;BME280;66189;49.000;11.640;2023-04-26T04:45:36;95930.00;;;2.20;75.52
31775;BME280;66189;49.000;11.640;2023-04-26T04:47:38;95936.56;;;2.23;76.11
31775;BME280;66189;49.000;11.640;2023-04-26T04:49:39;95930.47;;;2.22;75.94
31775;BME280;66189;49.000;11.640;2023-04-26T04:51:39;95932.03;;;2.23;75.87
31775;BME280;66189;49.000;11.640;2023-04-26T04:53:39;95931.06;;;2.19;76.18
31775;BME280;66189;49.000;11.640;2023-04-26T04:55:39;95933.91;;;2.23;76.41
31775;BME280;66189;49.000;11.640;2023-04-26T04:57:41;95934.88;;;2.27;77.11
31775;BME280;66189;49.000;11.640;2023-04-26T04:59:41;95939.88;;;2.28;76.92
31775;BME280;66189;49.000;11.640;2023-04-26T05:01:43;95935.22;;;2.34;77.20
31775;BME280;66189;49.000;11.640;2023-04-26T05:03:48;95936.34;;;2.42;77.20
31775;BME280;66189;49.000;11.640;2023-04-26T05:05:48;95937.44;;;2.41;77.36
31775;BME280;66189;49.000;11.640;2023-04-26T05:07:48;95939.91;;;2.37;77.55
31775;BME280;66189;49.000;11.640;2023-04-26T05:09:49;95943.50;;;2.41;77.11
31775;BME280;66189;49.000;11.640;2023-04-26T05:11:50;95944.94;;;2.47;77.37
31775;BME280;66189;49.000;11.640;2023-04-26T05:13:50;95949.53;;;2.56;76.01
31775;BME280;66189;49.000;11.640;2023-04-26T05:15:50;95947.91;;;2.46;75.80
31775;BME280;66189;49.000;11.640;2023-04-26T05:17:51;95939.13;;;2.37;76.05
31775;BME280;66189;49.000;11.640;2023-04-26T05:19:54;95947.97;;;2.55;76.72
31775;BME280;66189;49.000;11.640;2023-04-26T05:21:55;95949.97;;;2.49;75.73
31775;BME280;66189;49.000;11.640;2023-04-26T05:23:56;95945.50;;;2.58;76.29
31775;BME280;66189;49.000;11.640;2023-04-26T05:26:00;95940.69;;;2.69;76.39
31775;BME280;66189;49.000;11.640;2023-04-26T05:28:26;95941.88;;;2.86;75.70
31775;BME280;66189;49.000;11.640;2023-04-26T05:30:58;95947.78;;;2.82;74.44
31775;BME280;66189;49.000;11.640;2023-04-26T05:33:22;95954.28;;;2.67;75.74
31775;BME280;66189;49.000;11.640;2023-04-26T05:35:28;95952.59;;;2.80;75.48
31775;BME280;66189;49.000;11.640;2023-04-26T05:37:28;95954.22;;;2.90;75.51
31775;BME280;66189;49.000;11.640;2023-04-26T05:39:29;95949.91;;;3.12;75.88
31775;BME280;66189;49.000;11.640;2023-04-26T05:41:29;95948.66;;;3.18;75.63
31775;BME280;66189;49.000;11.640;2023-04-26T05:43:30;95946.16;;;3.22;76.06
31775;BME280;66189;49.000;11.640;2023-04-26T05:45:30;95963.66;;;3.14;74.39
31775;BME280;66189;49.000;11.640;2023-04-26T05:47:32;95966.28;;;3.05;75.31
31775;BME280;66189;49.000;11.640;2023-04-26T05:49:32;95969.84;;;2.92;73.82
31775;BME280;66189;49.000;11.640;2023-04-26T05:51:32;95970.16;;;2.99;74.52
31775;BME280;66189;49.000;11.640;2023-04-26T05:53:33;95975.41;;;3.13;75.44
31775;BME280;66189;49.000;11.640;2023-04-26T05:55:33;95978.06;;;3.13;74.99
31775;BME280;66189;49.000;11.640;2023-04-26T05:57:33;95973.56;;;2.82;74.90
31775;BME280;66189;49.000;11.640;2023-04-26T05:59:36;95978.22;;;2.76;75.25
31775;BME280;66189;49.000;11.640;2023-04-26T06:01:37;95974.50;;;2.86;75.59
31775;BME280;66189;49.000;11.640;2023-04-26T06:03:38;95972.81;;;2.90;75.77
31775;BME280;66189;49.000;11.640;2023-04-26T06:05:38;95977.53;;;3.02;75.61
31775;BME280;66189;49.000;11.640;2023-04-26T06:07:39;95978.44;;;2.89;74.85
31775;BME280;66189;49.000;11.640;2023-04-26T06:09:39;95979.06;;;2.86;74.91
31775;BME280;66189;49.000;11.640;2023-04-26T06:11:39;95981.72;;;2.94;74.76
31775;BME280;66189;49.000;11.640;2023-04-26T06:13:40;95992.41;;;3.03;74.66
31775;BME280;66189;49.000;11.640;2023-04-26T06:15:42;95998.56;;;3.21;76.30
31775;BME280;66189;49.000;11.640;2023-04-26T06:17:42;95998.88;;;3.19;76.35
31775;BME280;66189;49.000;11.640;2023-04-26T06:19:43;95998.38;;;3.09;74.81
31775;BME280;66189;49.000;11.640;2023-04-26T06:21:43;95994.66;;;3.27;75.93
31775;BME280;66189;49.000;11.640;2023-04-26T06:23:43;95991.44;;;3.48;75.52
31775;BME280;66189;49.000;11.640;2023-04-26T06:25:44;95995.06;;;3.69;75.86
31775;BME280;66189;49.000;11.640;2023-04-26T06:27:45;95991.13;;;3.58;74.50
31775;BME280;66189;49.000;11.640;2023-04-26T06:29:45;95995.06;;;3.69;74.46
31775;BME280;66189;49.000;11.640;2023-04-26T06:31:46;96001.81;;;3.84;74.33
31775;BME280;66189;49.000;11.640;2023-04-26T06:33:46;95999.63;;;3.95;73.77
31775;BME280;66189;49.000;11.640;2023-04-26T06:35:47;95994.59;;;3.85;72.78
31775;BME280;66189;49.000;11.640;2023-04-26T06:37:47;95997.25;;;4.02;72.93
31775;BME280;66189;49.000;11.640;2023-04-26T06:39:48;95994.91;;;4.09;73.69
31775;BME280;66189;49.000;11.640;2023-04-26T06:41:49;96000.41;;;4.13;72.21
31775;BME280;66189;49.000;11.640;2023-04-26T06:43:59;96008.84;;;4.24;72.36
31775;BME280;66189;49.000;11.640;2023-04-26T06:46:04;96001.16;;;4.40;73.23
31775;BME280;66189;49.000;11.640;2023-04-26T06:48:04;96008.31;;;4.57;72.66
31775;BME280;66189;49.000;11.640;2023-04-26T06:50:06;96015.41;;;4.26;69.51
31775;BME280;66189;49.000;11.640;2023-04-26T06:52:07;96027.63;;;4.19;69.76
31775;BME280;66189;49.000;11.640;2023-04-26T06:54:08;96023.44;;;4.09;69.65
31775;BME280;66189;49.000;11.640;2023-04-26T06:56:08;96020.44;;;3.93;71.60
31775;BME280;66189;49.000;11.640;2023-04-26T06:58:09;96027.97;;;4.00;71.96
31775;BME280;66189;49.000;11.640;2023-04-26T07:00:09;96027.66;;;4.10;72.08
31775;BME280;66189;49.000;11.640;2023-04-26T07:02:10;96028.59;;;4.23;71.22
31775;BME280;66189;49.000;11.640;2023-04-26T07:04:10;96020.78;;;4.18;69.93
31775;BME280;66189;49.000;11.640;2023-04-26T07:06:10;96019.34;;;4.29;70.27
31775;BME280;66189;49.000;11.640;2023-04-26T07:08:11;96026.25;;;4.21;70.41
31775;BME280;66189;49.000;11.640;2023-04-26T07:10:12;96022.13;;;4.59;71.08
31775;BME280;66189;49.000;11.640;2023-04-26T07:12:12;96019.41;;;4.76;69.99
31775;BME280;66189;49.000;11.640;2023-04-26T07:14:13;96020.56;;;4.58;68.60
31775;BME280;66189;49.000;11.640;2023-04-26T07:16:13;96022.38;;;4.92;66.13
31775;BME280;66189;49.000;11.640;2023-04-26T07:18:13;96029.09;;;4.98;65.81
31775;BME280;66189;49.000;11.640;2023-04-26T07:20:13;96016.91;;;5.19;62.63
31775;BME280;66189;49.000;11.640;2023-04-26T07:22:18;96021.28;;;5.23;62.47
31775;BME280;66189;49.000;11.640;2023-04-26T07:24:19;96022.56;;;5.26;62.10
31775;BME280;66189;49.000;11.640;2023-04-26T07:26:19;96023.47;;;5.30;61.44
31775;BME280;66189;49.000;11.640;2023-04-26T07:28:20;96021.75;;;5.55;61.07
31775;BME280;66189;49.000;11.640;2023-04-26T07:30:20;96016.75;;;5.83;59.79
31775;BME280;66189;49.000;11.640;2023-04-26T07:32:20;96017.63;;;5.87;58.70
31775;BME280;66189;49.000;11.640;2023-04-26T07:34:21;96017.47;;;5.93;57.05
31775;BME280;66189;49.000;11.640;2023-04-26T07:36:21;96021.06;;;5.97;55.60
31775;BME280;66189;49.000;11.640;2023-04-26T07:38:21;96016.13;;;6.08;55.21
31775;BME280;66189;49.000;11.640;2023-04-26T07:40:22;96015.53;;;6.23;56.92
31775;BME280;66189;49.000;11.640;2023-04-26T07:42:23;96011.59;;;6.42;53.35
31775;BME280;66189;49.000;11.640;2023-04-26T07:44:23;96013.16;;;6.76;55.11
31775;BME280;66189;49.000;11.640;2023-04-26T07:46:24;96010.94;;;7.03;54.27
31775;BME280;66189;49.000;11.640;2023-04-26T07:48:24;96010.19;;;7.27;54.80
31775;BME280;66189;49.000;11.640;2023-04-26T07:50:24;96011.91;;;7.44;54.54
31775;BME280;66189;49.000;11.640;2023-04-26T07:52:25;96017.78;;;7.62;56.11
31775;BME280;66189;49.000;11.640;2023-04-26T07:54:25;96012.88;;;7.64;55.08
31775;BME280;66189;49.000;11.640;2023-04-26T07:56:25;96015.22;;;7.65;55.33
31775;BME280;66189;49.000;11.640;2023-04-26T07:58:26;96020.44;;;7.87;54.71
31775;BME280;66189;49.000;11.640;2023-04-26T08:00:26;96013.44;;;8.10;53.96
31775;BME280;66189;49.000;11.640;2023-04-26T08:02:26;96006.91;;;8.08;54.89
31775;BME280;66189;49.000;11.640;2023-04-26T08:04:30;96015.97;;;8.31;52.07
31775;BME280;66189;49.000;11.640;2023-04-26T08:06:34;96014.72;;;8.41;54.08
31775;BME280;66189;49.000;11.640;2023-04-26T08:08:35;96010.94;;;8.30;50.75
31775;BME280;66189;49.000;11.640;2023-04-26T08:10:41;96015.53;;;8.58;51.80
31775;BME280;66189;49.000;11.640;2023-04-26T08:12:42;96014.44;;;8.59;52.61
31775;BME280;66189;49.000;11.640;2023-04-26T08:14:42;96007.53;;;8.89;51.81
31775;BME280;66189;49.000;11.640;2023-04-26T08:16:42;96013.44;;;8.95;50.80
31775;BME280;66189;49.000;11.640;2023-04-26T08:18:43;96011.09;;;8.94;52.10
31775;BME280;66189;49.000;11.640;2023-04-26T08:20:45;96018.84;;;8.67;49.65
31775;BME280;66189;49.000;11.640;2023-04-26T08:22:46;96016.22;;;8.26;49.06
31775;BME280;66189;49.000;11.640;2023-04-26T08:24:47;96008.16;;;8.26;50.64
31775;BME280;66189;49.000;11.640;2023-04-26T08:26:49;96006.22;;;8.11;51.83
31775;BME280;66189;49.000;11.640;2023-04-26T08:28:49;96004.91;;;8.33;50.64
31775;BME280;66189;49.000;11.640;2023-04-26T08:30:50;96002.28;;;8.93;51.95
31775;BME280;66189;49.000;11.640;2023-04-26T08:32:50;96005.91;;;8.85;52.18
31775;BME280;66189;49.000;11.640;2023-04-26T08:34:50;96008.19;;;9.15;49.73
31775;BME280;66189;49.000;11.640;2023-04-26T08:36:50;96004.53;;;9.07;50.42
31775;BME280;66189;49.000;11.640;2023-04-26T08:38:51;96010.56;;;8.72;50.64
31775;BME280;66189;49.000;11.640;2023-04-26T08:40:51;96007.59;;;8.61;50.04
31775;BME280;66189;49.000;11.640;2023-04-26T08:42:54;96008.41;;;8.78;50.13
31775;BME280;66189;49.000;11.640;2023-04-26T08:44:55;96004.22;;;8.36;48.27
31775;BME280;66189;49.000;11.640;2023-04-26T08:47:03;96006.25;;;8.83;48.69
31775;BME280;66189;49.000;11.640;2023-04-26T08:51:24;96018.56;;;9.16;50.64
31775;BME280;66189;49.000;11.640;2023-04-26T08:53:26;96017.44;;;8.85;48.99
31775;BME280;66189;49.000;11.640;2023-04-26T08:55:27;96009.56;;;9.24;48.79
31775;BME280;66189;49.000;11.640;2023-04-26T08:57:27;96012.94;;;9.05;48.03
31775;BME280;66189;49.000;11.640;2023-04-26T08:59:31;96001.44;;;9.37;49.01
31775;BME280;66189;49.000;11.640;2023-04-26T09:01:32;96009.03;;;8.87;46.62
31775;BME280;66189;49.000;11.640;2023-04-26T09:03:33;96012.50;;;8.59;49.14
31775;BME280;66189;49.000;11.640;2023-04-26T09:05:33;96010.22;;;8.74;48.65
31775;BME280;66189;49.000;11.640;2023-04-26T09:07:41;96007.13;;;9.19;48.60
31775;BME280;66189;49.000;11.640;2023-04-26T09:09:42;96005.88;;;8.69;48.20
31775;BME280;66189;49.000;11.640;2023-04-26T09:11:51;96017.03;;;8.55;45.87
31775;BME280;66189;49.000;11.640;2023-04-26T09:13:53;96009.44;;;8.73;46.08
31775;BME280;66189;49.000;11.640;2023-04-26T09:15:53;96018.00;;;8.22;47.42
31775;BME280;66189;49.000;11.640;2023-04-26T09:17:53;96009.88;;;8.47;47.16
31775;BME280;66189;49.000;11.640;2023-04-26T09:19:54;96007.03;;;8.84;47.72
31775;BME280;66189;49.000;11.640;2023-04-26T09:21:54;95998.28;;;9.35;47.99
31775;BME280;66189;49.000;11.640;2023-04-26T09:23:58;96006.34;;;9.35;47.24
31775;BME280;66189;49.000;11.640;2023-04-26T09:26:13;96006.50;;;9.58;48.00
31775;BME280;66189;49.000;11.640;2023-04-26T09:28:21;95997.97;;;8.88;44.90
31775;BME280;66189;49.000;11.640;2023-04-26T09:30:21;95998.56;;;9.14;44.56
31775;BME280;66189;49.000;11.640;2023-04-26T09:32:22;96006.97;;;9.12;47.71
31775;BME280;66189;49.000;11.640;2023-04-26T09:34:23;96005.66;;;8.90;46.79
31775;BME280;66189;49.000;11.640;2023-04-26T09:36:24;96003.50;;;9.43;45.60
31775;BME280;66189;49.000;11.640;2023-04-26T09:38:24;95996.13;;;9.40;44.50
31775;BME280;66189;49.000;11.640;2023-04-26T09:40:26;95996.91;;;9.41;46.54
31775;BME280;66189;49.000;11.640;2023-04-26T09:42:26;95993.66;;;10.22;45.35
31775;BME280;66189;49.000;11.640;2023-04-26T09:44:27;95992.91;;;10.41;44.85
31775;BME280;66189;49.000;11.640;2023-04-26T09:46:28;95999.28;;;10.33;42.13
31775;BME280;66189;49.000;11.640;2023-04-26T09:48:29;95996.31;;;10.81;43.32
31775;BME280;66189;49.000;11.640;2023-04-26T09:50:30;96002.22;;;10.47;39.30
31775;BME280;66189;49.000;11.640;2023-04-26T09:52:31;95994.56;;;10.89;38.67
31775;BME280;66189;49.000;11.640;2023-04-26T09:54:45;95997.59;;;11.10;41.63
31775;BME280;66189;49.000;11.640;2023-04-26T09:56:57;95993.16;;;10.75;41.25
31775;BME280;66189;49.000;11.640;2023-04-26T09:58:59;95994.69;;;9.78;41.92
31775;BME280;66189;49.000;11.640;2023-04-26T10:01:04;95988.94;;;9.45;42.06
31775;BME280;66189;49.000;11.640;2023-04-26T10:03:06;96002.97;;;9.38;41.51
31775;BME280;66189;49.000;11.640;2023-04-26T10:05:06;96004.59;;;9.42;43.03
31775;BME280;66189;49.000;11.640;2023-04-26T10:07:07;96001.03;;;9.70;43.45
31775;BME280;66189;49.000;11.640;2023-04-26T10:09:09;96001.84;;;8.91;43.77
31775;BME280;66189;49.000;11.640;2023-04-26T10:11:09;95994.78;;;9.31;44.75
31775;BME280;66189;49.000;11.640;2023-04-26T10:13:10;95993.78;;;9.39;45.57
31775;BME280;66189;49.000;11.640;2023-04-26T10:15:11;95993.00;;;9.54;43.10
31775;BME280;66189;49.000;11.640;2023-04-26T10:17:12;95997.06;;;9.64;42.62
31775;BME280;66189;49.000;11.640;2023-04-26T10:19:12;95991.34;;;10.60;45.25
31775;BME280;66189;49.000;11.640;2023-04-26T10:21:20;95984.81;;;10.61;40.99
31775;BME280;66189;49.000;11.640;2023-04-26T10:23:22;95992.41;;;10.55;42.26
31775;BME280;66189;49.000;11.640;2023-04-26T10:25:33;95983.75;;;10.07;42.07
31775;BME280;66189;49.000;11.640;2023-04-26T10:30:03;95991.91;;;9.07;45.34
31775;BME280;66189;49.000;11.640;2023-04-26T10:32:06;95973.78;;;9.52;43.27
31775;BME280;66189;49.000;11.640;2023-04-26T10:34:17;95985.53;;;9.64;43.81
31775;BME280;66189;49.000;11.640;2023-04-26T10:36:18;95983.50;;;9.09;42.98
31775;BME280;66189;49.000;11.640;2023-04-26T10:38:20;95980.53;;;8.66;41.88
31775;BME280;66189;49.000;11.640;2023-04-26T10:40:23;95971.03;;;9.68;43.64
31775;BME280;66189;49.000;11.640;2023-04-26T10:42:25;95975.66;;;9.52;42.90
31775;BME280;66189;49.000;11.640;2023-04-26T10:46:36;95976.97;;;10.13;40.39
31775;BME280;66189;49.000;11.640;2023-04-26T10:48:37;95978.06;;;9.92;39.96
31775;BME280;66189;49.000;11.640;2023-04-26T10:54:59;95978.31;;;9.16;40.42